sensor_id;sensor_type;location;lat;lon;timestamp;P1;durP1;ratioP1;P2;durP2;ratioP2
21814;SDS011;11069;48.988;8.450;2022-12-07T00:01:10;25.08;;;21.30;;
21814;SDS011;11069;48.988;8.450;2022-12-07T00:03:40;22.48;;;20.10;;
21814;SDS011;11069;48.988;8.450;2022-12-07T00:06:07;22.58;;;20.27;;
21814;SDS011;11069;48.988;8.450;2022-12-07T00:08:35;24.60;;;21.08;;
21814;SDS011;11069;48.988;8.450;2022-12-07T00:11:02;23.52;;;21.02;;
21814;SDS011;11069;48.988;8.450;2022-12-07T00:13:29;23.58;;;21.15;;
21814;SDS011;11069;48.988;8.450;2022-12-07T00:15:55;23.30;;;20.48;;
21814;SDS011;11069;48.988;8.450;2022-12-07T00:18:24;24.20;;;21.23;;
21814;SDS011;11069;48.988;8.450;2022-12-07T00:20:49;24.35;;;21.85;;
21814;SDS011;11069;48.988;8.450;2022-12-07T00:23:15;24.92;;;22.30;;
21814;SDS011;11069;48.988;8.450;2022-12-07T00:25:41;24.67;;;22.05;;
21814;SDS011;11069;48.988;8.450;2022-12-07T00:28:06;24.90;;;22.17;;
21814;SDS011;11069;48.988;8.450;2022-12-07T00:30:34;25.83;;;23.02;;
21814;SDS011;11069;48.988;8.450;2022-12-07T00:32:59;24.42;;;21.52;;
21814;SDS011;11069;48.988;8.450;2022-12-07T00:35:25;26.08;;;23.42;;
21814;SDS011;11069;48.988;8.450;2022-12-07T00:37:50;24.75;;;22.38;;
21814;SDS011;11069;48.988;8.450;2022-12-07T00:40:16;26.33;;;23.52;;
21814;SDS011;11069;48.988;8.450;2022-12-07T00:42:42;26.15;;;23.42;;
21814;SDS011;11069;48.988;8.450;2022-12-07T00:45:07;26.58;;;23.30;;
21814;SDS011;11069;48.988;8.450;2022-12-07T00:47:33;25.83;;;23.15;;
21814;SDS011;11069;48.988;8.450;2022-12-07T00:49:59;27.13;;;24.33;;
21814;SDS011;11069;48.988;8.450;2022-12-07T00:52:25;27.05;;;24.10;;
21814;SDS011;11069;48.988;8.450;2022-12-07T00:54:50;25.85;;;23.25;;
21814;SDS011;11069;48.988;8.450;2022-12-07T00:57:16;25.75;;;22.80;;
21814;SDS011;11069;48.988;8.450;2022-12-07T00:59:41;28.83;;;23.92;;
21814;SDS011;11069;48.988;8.450;2022-12-07T01:02:07;26.00;;;23.30;;
21814;SDS011;11069;48.988;8.450;2022-12-07T01:04:33;26.90;;;24.08;;
21814;SDS011;11069;48.988;8.450;2022-12-07T01:06:59;26.48;;;23.63;;
21814;SDS011;11069;48.988;8.450;2022-12-07T01:09:25;27.50;;;24.60;;
21814;SDS011;11069;48.988;8.450;2022-12-07T01:11:50;27.48;;;24.08;;
21814;SDS011;11069;48.988;8.450;2022-12-07T01:14:16;26.83;;;24.02;;
21814;SDS011;11069;48.988;8.450;2022-12-07T01:16:41;26.98;;;24.25;;
21814;SDS011;11069;48.988;8.450;2022-12-07T01:19:07;29.42;;;24.13;;
21814;SDS011;11069;48.988;8.450;2022-12-07T01:21:33;26.10;;;23.40;;
21814;SDS011;11069;48.988;8.450;2022-12-07T01:24:02;28.67;;;25.60;;
21814;SDS011;11069;48.988;8.450;2022-12-07T01:26:29;30.17;;;26.92;;
21814;SDS011;11069;48.988;8.450;2022-12-07T01:28:55;26.95;;;24.15;;
21814;SDS011;11069;48.988;8.450;2022-12-07T01:31:24;27.30;;;24.63;;
21814;SDS011;11069;48.988;8.450;2022-12-07T01:33:51;28.20;;;25.20;;
21814;SDS011;11069;48.988;8.450;2022-12-07T01:36:22;30.05;;;25.10;;
21814;SDS011;11069;48.988;8.450;2022-12-07T01:38:57;29.13;;;26.00;;
21814;SDS011;11069;48.988;8.450;2022-12-07T01:41:26;28.83;;;25.92;;
21814;SDS011;11069;48.988;8.450;2022-12-07T01:46:38;32.25;;;26.27;;
21814;SDS011;11069;48.988;8.450;2022-12-07T01:49:12;29.80;;;25.85;;
21814;SDS011;11069;48.988;8.450;2022-12-07T01:51:43;29.02;;;24.75;;
21814;SDS011;11069;48.988;8.450;2022-12-07T01:54:11;27.75;;;24.95;;
21814;SDS011;11069;48.988;8.450;2022-12-07T01:56:40;28.55;;;25.55;;
21814;SDS011;11069;48.988;8.450;2022-12-07T01:59:08;28.05;;;24.98;;
21814;SDS011;11069;48.988;8.450;2022-12-07T02:01:34;28.70;;;25.00;;
21814;SDS011;11069;48.988;8.450;2022-12-07T02:04:00;27.60;;;24.70;;
21814;SDS011;11069;48.988;8.450;2022-12-07T02:06:26;28.77;;;25.67;;
21814;SDS011;11069;48.988;8.450;2022-12-07T02:08:52;27.73;;;24.85;;
21814;SDS011;11069;48.988;8.450;2022-12-07T02:11:18;28.75;;;25.65;;
21814;SDS011;11069;48.988;8.450;2022-12-07T02:13:45;27.17;;;24.08;;
21814;SDS011;11069;48.988;8.450;2022-12-07T02:18:55;28.77;;;25.27;;
21814;SDS011;11069;48.988;8.450;2022-12-07T02:24:24;28.58;;;23.98;;
21814;SDS011;11069;48.988;8.450;2022-12-07T02:29:33;26.08;;;23.27;;
21814;SDS011;11069;48.988;8.450;2022-12-07T02:35:15;24.58;;;21.83;;
21814;SDS011;11069;48.988;8.450;2022-12-07T02:39:54;29.73;;;26.17;;
21814;SDS011;11069;48.988;8.450;2022-12-07T02:42:25;28.40;;;25.48;;
21814;SDS011;11069;48.988;8.450;2022-12-07T02:44:57;29.33;;;26.35;;
21814;SDS011;11069;48.988;8.450;2022-12-07T02:47:23;29.52;;;26.55;;
21814;SDS011;11069;48.988;8.450;2022-12-07T02:49:51;29.35;;;26.35;;
21814;SDS011;11069;48.988;8.450;2022-12-07T02:52:17;30.00;;;26.52;;
21814;SDS011;11069;48.988;8.450;2022-12-07T02:54:43;30.95;;;27.60;;
21814;SDS011;11069;48.988;8.450;2022-12-07T02:59:51;33.53;;;29.80;;
21814;SDS011;11069;48.988;8.450;2022-12-07T03:02:31;31.92;;;28.52;;
21814;SDS011;11069;48.988;8.450;2022-12-07T03:15:43;33.30;;;29.08;;
21814;SDS011;11069;48.988;8.450;2022-12-07T03:18:17;32.92;;;29.25;;
21814;SDS011;11069;48.988;8.450;2022-12-07T03:20:46;31.98;;;28.55;;
21814;SDS011;11069;48.988;8.450;2022-12-07T03:23:15;32.67;;;29.15;;
21814;SDS011;11069;48.988;8.450;2022-12-07T03:25:45;34.80;;;29.75;;
21814;SDS011;11069;48.988;8.450;2022-12-07T03:28:15;33.03;;;29.42;;
21814;SDS011;11069;48.988;8.450;2022-12-07T03:30:55;32.95;;;28.33;;
21814;SDS011;11069;48.988;8.450;2022-12-07T03:33:42;32.65;;;29.10;;
21814;SDS011;11069;48.988;8.450;2022-12-07T03:36:14;32.45;;;28.70;;
21814;SDS011;11069;48.988;8.450;2022-12-07T03:38:48;30.85;;;27.55;;
21814;SDS011;11069;48.988;8.450;2022-12-07T03:43:50;29.65;;;26.40;;
21814;SDS011;11069;48.988;8.450;2022-12-07T03:49:10;28.33;;;25.25;;
21814;SDS011;11069;48.988;8.450;2022-12-07T03:52:03;28.70;;;25.75;;
21814;SDS011;11069;48.988;8.450;2022-12-07T03:54:44;28.60;;;25.70;;
21814;SDS011;11069;48.988;8.450;2022-12-07T03:57:23;29.95;;;26.65;;
21814;SDS011;11069;48.988;8.450;2022-12-07T03:59:51;29.58;;;26.58;;
21814;SDS011;11069;48.988;8.450;2022-12-07T04:02:18;30.23;;;27.02;;
21814;SDS011;11069;48.988;8.450;2022-12-07T04:04:45;30.42;;;26.90;;
21814;SDS011;11069;48.988;8.450;2022-12-07T04:07:10;29.08;;;26.08;;
21814;SDS011;11069;48.988;8.450;2022-12-07T04:09:37;29.83;;;26.73;;
21814;SDS011;11069;48.988;8.450;2022-12-07T04:12:03;30.90;;;27.42;;
21814;SDS011;11069;48.988;8.450;2022-12-07T04:14:29;29.65;;;26.45;;
21814;SDS011;11069;48.988;8.450;2022-12-07T04:16:55;29.50;;;26.30;;
21814;SDS011;11069;48.988;8.450;2022-12-07T04:19:23;30.40;;;27.20;;
21814;SDS011;11069;48.988;8.450;2022-12-07T04:21:52;29.42;;;26.23;;
21814;SDS011;11069;48.988;8.450;2022-12-07T04:24:19;30.05;;;26.45;;
21814;SDS011;11069;48.988;8.450;2022-12-07T04:26:45;30.90;;;27.60;;
21814;SDS011;11069;48.988;8.450;2022-12-07T04:29:11;30.45;;;27.15;;
21814;SDS011;11069;48.988;8.450;2022-12-07T04:31:37;30.15;;;27.10;;
21814;SDS011;11069;48.988;8.450;2022-12-07T04:34:03;29.00;;;26.05;;
21814;SDS011;11069;48.988;8.450;2022-12-07T04:36:30;31.23;;;28.00;;
21814;SDS011;11069;48.988;8.450;2022-12-07T04:38:56;32.50;;;28.20;;
21814;SDS011;11069;48.988;8.450;2022-12-07T04:41:22;29.38;;;26.30;;
21814;SDS011;11069;48.988;8.450;2022-12-07T04:43:52;28.83;;;25.75;;
21814;SDS011;11069;48.988;8.450;2022-12-07T04:46:22;29.98;;;26.75;;
21814;SDS011;11069;48.988;8.450;2022-12-07T04:48:49;29.60;;;26.55;;
21814;SDS011;11069;48.988;8.450;2022-12-07T04:51:18;30.92;;;27.48;;
21814;SDS011;11069;48.988;8.450;2022-12-07T04:53:45;30.85;;;27.63;;
21814;SDS011;11069;48.988;8.450;2022-12-07T04:56:11;29.85;;;26.67;;
21814;SDS011;11069;48.988;8.450;2022-12-07T04:58:36;29.45;;;26.40;;
21814;SDS011;11069;48.988;8.450;2022-12-07T05:01:02;29.27;;;26.23;;
21814;SDS011;11069;48.988;8.450;2022-12-07T05:03:28;28.02;;;25.23;;
21814;SDS011;11069;48.988;8.450;2022-12-07T05:05:53;28.55;;;25.50;;
21814;SDS011;11069;48.988;8.450;2022-12-07T05:08:19;30.75;;;27.13;;
21814;SDS011;11069;48.988;8.450;2022-12-07T05:10:45;28.95;;;25.33;;
21814;SDS011;11069;48.988;8.450;2022-12-07T05:13:10;32.40;;;26.42;;
21814;SDS011;11069;48.988;8.450;2022-12-07T05:15:36;29.55;;;26.42;;
21814;SDS011;11069;48.988;8.450;2022-12-07T05:18:01;29.80;;;25.55;;
21814;SDS011;11069;48.988;8.450;2022-12-07T05:20:28;28.95;;;25.98;;
21814;SDS011;11069;48.988;8.450;2022-12-07T05:22:53;27.98;;;25.13;;
21814;SDS011;11069;48.988;8.450;2022-12-07T05:25:19;28.17;;;25.25;;
21814;SDS011;11069;48.988;8.450;2022-12-07T05:27:45;27.70;;;23.85;;
21814;SDS011;11069;48.988;8.450;2022-12-07T05:30:10;26.52;;;23.83;;
21814;SDS011;11069;48.988;8.450;2022-12-07T05:32:36;26.35;;;23.75;;
21814;SDS011;11069;48.988;8.450;2022-12-07T05:35:02;25.55;;;22.95;;
21814;SDS011;11069;48.988;8.450;2022-12-07T05:37:27;25.25;;;22.63;;
21814;SDS011;11069;48.988;8.450;2022-12-07T05:39:53;27.40;;;24.55;;
21814;SDS011;11069;48.988;8.450;2022-12-07T05:42:19;25.30;;;22.75;;
21814;SDS011;11069;48.988;8.450;2022-12-07T05:44:45;26.42;;;23.73;;
21814;SDS011;11069;48.988;8.450;2022-12-07T05:47:11;26.95;;;23.67;;
21814;SDS011;11069;48.988;8.450;2022-12-07T05:49:38;25.40;;;22.80;;
21814;SDS011;11069;48.988;8.450;2022-12-07T05:52:04;25.42;;;22.67;;
21814;SDS011;11069;48.988;8.450;2022-12-07T05:54:30;25.52;;;22.80;;
21814;SDS011;11069;48.988;8.450;2022-12-07T05:56:56;25.92;;;23.17;;
21814;SDS011;11069;48.988;8.450;2022-12-07T05:59:22;24.73;;;22.10;;
21814;SDS011;11069;48.988;8.450;2022-12-07T06:01:59;19.83;;;17.75;;
21814;SDS011;11069;48.988;8.450;2022-12-07T06:04:28;25.65;;;22.95;;
21814;SDS011;11069;48.988;8.450;2022-12-07T06:06:55;23.70;;;21.30;;
21814;SDS011;11069;48.988;8.450;2022-12-07T06:09:21;24.20;;;21.67;;
21814;SDS011;11069;48.988;8.450;2022-12-07T06:11:48;23.25;;;20.83;;
21814;SDS011;11069;48.988;8.450;2022-12-07T06:14:32;23.20;;;20.90;;
21814;SDS011;11069;48.988;8.450;2022-12-07T06:16:58;23.90;;;21.27;;
21814;SDS011;11069;48.988;8.450;2022-12-07T06:19:24;23.88;;;21.38;;
21814;SDS011;11069;48.988;8.450;2022-12-07T06:21:49;23.80;;;21.15;;
21814;SDS011;11069;48.988;8.450;2022-12-07T06:24:16;24.33;;;21.85;;
21814;SDS011;11069;48.988;8.450;2022-12-07T06:26:42;21.65;;;19.30;;
21814;SDS011;11069;48.988;8.450;2022-12-07T06:29:09;21.67;;;19.40;;
21814;SDS011;11069;48.988;8.450;2022-12-07T06:31:35;22.73;;;20.30;;
21814;SDS011;11069;48.988;8.450;2022-12-07T06:34:02;23.95;;;20.00;;
21814;SDS011;11069;48.988;8.450;2022-12-07T06:36:30;23.27;;;20.80;;
21814;SDS011;11069;48.988;8.450;2022-12-07T06:38:55;22.88;;;20.50;;
21814;SDS011;11069;48.988;8.450;2022-12-07T06:41:21;22.33;;;19.83;;
21814;SDS011;11069;48.988;8.450;2022-12-07T06:43:47;23.65;;;20.25;;
21814;SDS011;11069;48.988;8.450;2022-12-07T06:46:13;22.27;;;19.15;;
21814;SDS011;11069;48.988;8.450;2022-12-07T06:48:39;22.63;;;20.33;;
21814;SDS011;11069;48.988;8.450;2022-12-07T06:51:06;25.42;;;20.98;;
21814;SDS011;11069;48.988;8.450;2022-12-07T06:53:32;21.77;;;19.25;;
21814;SDS011;11069;48.988;8.450;2022-12-07T06:55:57;21.98;;;19.70;;
21814;SDS011;11069;48.988;8.450;2022-12-07T06:58:23;21.63;;;19.33;;
21814;SDS011;11069;48.988;8.450;2022-12-07T07:00:48;20.83;;;18.63;;
21814;SDS011;11069;48.988;8.450;2022-12-07T07:03:17;20.67;;;18.52;;
21814;SDS011;11069;48.988;8.450;2022-12-07T07:05:43;21.77;;;19.40;;
21814;SDS011;11069;48.988;8.450;2022-12-07T07:08:09;22.90;;;18.98;;
21814;SDS011;11069;48.988;8.450;2022-12-07T07:10:35;20.00;;;18.00;;
21814;SDS011;11069;48.988;8.450;2022-12-07T07:13:01;20.65;;;18.45;;
21814;SDS011;11069;48.988;8.450;2022-12-07T07:15:27;19.90;;;17.80;;
21814;SDS011;11069;48.988;8.450;2022-12-07T07:17:53;18.77;;;16.77;;
21814;SDS011;11069;48.988;8.450;2022-12-07T07:20:19;19.77;;;17.67;;
21814;SDS011;11069;48.988;8.450;2022-12-07T07:22:44;19.77;;;17.83;;
21814;SDS011;11069;48.988;8.450;2022-12-07T07:25:10;19.50;;;17.42;;
21814;SDS011;11069;48.988;8.450;2022-12-07T07:27:35;19.05;;;17.13;;
21814;SDS011;11069;48.988;8.450;2022-12-07T07:30:01;19.17;;;17.27;;
21814;SDS011;11069;48.988;8.450;2022-12-07T07:32:27;19.33;;;17.40;;
21814;SDS011;11069;48.988;8.450;2022-12-07T07:34:53;19.42;;;17.35;;
21814;SDS011;11069;48.988;8.450;2022-12-07T07:37:19;19.45;;;17.40;;
21814;SDS011;11069;48.988;8.450;2022-12-07T07:39:44;19.10;;;17.13;;
21814;SDS011;11069;48.988;8.450;2022-12-07T07:42:10;18.45;;;16.55;;
21814;SDS011;11069;48.988;8.450;2022-12-07T07:44:35;19.77;;;16.02;;
21814;SDS011;11069;48.988;8.450;2022-12-07T07:47:01;18.35;;;16.45;;
21814;SDS011;11069;48.988;8.450;2022-12-07T07:49:27;19.50;;;16.60;;
21814;SDS011;11069;48.988;8.450;2022-12-07T07:51:52;21.85;;;17.77;;
21814;SDS011;11069;48.988;8.450;2022-12-07T07:54:18;18.33;;;16.45;;
21814;SDS011;11069;48.988;8.450;2022-12-07T07:56:44;18.15;;;16.27;;
21814;SDS011;11069;48.988;8.450;2022-12-07T07:59:09;18.70;;;16.75;;
21814;SDS011;11069;48.988;8.450;2022-12-07T08:01:35;20.10;;;17.92;;
21814;SDS011;11069;48.988;8.450;2022-12-07T08:04:00;18.83;;;16.83;;
21814;SDS011;11069;48.988;8.450;2022-12-07T08:06:26;19.67;;;17.55;;
21814;SDS011;11069;48.988;8.450;2022-12-07T08:08:52;18.50;;;16.60;;
21814;SDS011;11069;48.988;8.450;2022-12-07T08:11:17;19.77;;;17.67;;
21814;SDS011;11069;48.988;8.450;2022-12-07T08:13:45;20.13;;;17.83;;
21814;SDS011;11069;48.988;8.450;2022-12-07T08:16:12;18.98;;;16.98;;
21814;SDS011;11069;48.988;8.450;2022-12-07T08:18:38;18.70;;;16.70;;
21814;SDS011;11069;48.988;8.450;2022-12-07T08:21:05;19.15;;;17.15;;
21814;SDS011;11069;48.988;8.450;2022-12-07T08:23:32;20.52;;;17.33;;
21814;SDS011;11069;48.988;8.450;2022-12-07T08:26:12;18.73;;;16.73;;
21814;SDS011;11069;48.988;8.450;2022-12-07T08:28:40;19.55;;;17.15;;
21814;SDS011;11069;48.988;8.450;2022-12-07T08:31:06;17.50;;;15.73;;
21814;SDS011;11069;48.988;8.450;2022-12-07T08:33:39;17.88;;;15.15;;
21814;SDS011;11069;48.988;8.450;2022-12-07T08:36:06;17.45;;;15.65;;
21814;SDS011;11069;48.988;8.450;2022-12-07T08:38:36;16.48;;;14.85;;
21814;SDS011;11069;48.988;8.450;2022-12-07T08:41:03;18.10;;;15.88;;
21814;SDS011;11069;48.988;8.450;2022-12-07T08:43:29;16.95;;;15.20;;
21814;SDS011;11069;48.988;8.450;2022-12-07T08:46:17;16.25;;;14.65;;
21814;SDS011;11069;48.988;8.450;2022-12-07T08:49:30;17.70;;;15.43;;
21814;SDS011;11069;48.988;8.450;2022-12-07T08:51:34;16.80;;;15.13;;
21814;SDS011;11069;48.988;8.450;2022-12-07T08:54:01;17.23;;;15.43;;
21814;SDS011;11069;48.988;8.450;2022-12-07T08:56:28;16.52;;;14.82;;
21814;SDS011;11069;48.988;8.450;2022-12-07T08:58:54;15.70;;;14.05;;
21814;SDS011;11069;48.988;8.450;2022-12-07T09:01:20;19.25;;;15.73;;
21814;SDS011;11069;48.988;8.450;2022-12-07T09:03:45;18.15;;;15.15;;
21814;SDS011;11069;48.988;8.450;2022-12-07T09:06:11;17.70;;;14.68;;
21814;SDS011;11069;48.988;8.450;2022-12-07T09:08:39;16.83;;;15.05;;
21814;SDS011;11069;48.988;8.450;2022-12-07T09:11:08;21.13;;;14.75;;
21814;SDS011;11069;48.988;8.450;2022-12-07T09:13:34;17.33;;;14.95;;
21814;SDS011;11069;48.988;8.450;2022-12-07T09:15:59;17.15;;;15.35;;
21814;SDS011;11069;48.988;8.450;2022-12-07T09:18:25;16.55;;;14.95;;
21814;SDS011;11069;48.988;8.450;2022-12-07T09:20:51;16.55;;;14.63;;
21814;SDS011;11069;48.988;8.450;2022-12-07T09:23:17;16.90;;;15.18;;
21814;SDS011;11069;48.988;8.450;2022-12-07T09:25:42;16.80;;;14.90;;
21814;SDS011;11069;48.988;8.450;2022-12-07T09:28:08;16.05;;;14.35;;
21814;SDS011;11069;48.988;8.450;2022-12-07T09:30:34;18.80;;;14.88;;
21814;SDS011;11069;48.988;8.450;2022-12-07T09:33:00;16.48;;;14.77;;
21814;SDS011;11069;48.988;8.450;2022-12-07T09:35:26;18.42;;;14.32;;
21814;SDS011;11069;48.988;8.450;2022-12-07T09:37:52;15.75;;;14.15;;
21814;SDS011;11069;48.988;8.450;2022-12-07T09:40:18;16.15;;;13.82;;
21814;SDS011;11069;48.988;8.450;2022-12-07T09:42:47;15.13;;;13.40;;
21814;SDS011;11069;48.988;8.450;2022-12-07T09:45:22;17.17;;;14.07;;
21814;SDS011;11069;48.988;8.450;2022-12-07T09:47:52;15.55;;;13.95;;
21814;SDS011;11069;48.988;8.450;2022-12-07T09:50:23;14.93;;;13.35;;
21814;SDS011;11069;48.988;8.450;2022-12-07T09:52:51;15.15;;;13.65;;
21814;SDS011;11069;48.988;8.450;2022-12-07T09:55:26;16.67;;;13.57;;
21814;SDS011;11069;48.988;8.450;2022-12-07T09:57:53;16.10;;;14.43;;
21814;SDS011;11069;48.988;8.450;2022-12-07T10:00:21;16.10;;;14.50;;
21814;SDS011;11069;48.988;8.450;2022-12-07T10:02:58;16.75;;;13.13;;
21814;SDS011;11069;48.988;8.450;2022-12-07T10:07:54;16.73;;;14.18;;
21814;SDS011;11069;48.988;8.450;2022-12-07T10:10:24;15.82;;;14.05;;
21814;SDS011;11069;48.988;8.450;2022-12-07T10:13:01;14.32;;;12.82;;
21814;SDS011;11069;48.988;8.450;2022-12-07T10:18:20;15.38;;;13.27;;
21814;SDS011;11069;48.988;8.450;2022-12-07T10:20:49;16.85;;;13.73;;
21814;SDS011;11069;48.988;8.450;2022-12-07T10:23:24;15.07;;;13.00;;
21814;SDS011;11069;48.988;8.450;2022-12-07T10:25:50;17.70;;;13.90;;
21814;SDS011;11069;48.988;8.450;2022-12-07T10:28:19;15.82;;;13.38;;
21814;SDS011;11069;48.988;8.450;2022-12-07T10:35:56;15.40;;;12.82;;
21814;SDS011;11069;48.988;8.450;2022-12-07T10:38:21;14.82;;;12.70;;
21814;SDS011;11069;48.988;8.450;2022-12-07T10:40:51;14.48;;;12.85;;
21814;SDS011;11069;48.988;8.450;2022-12-07T10:43:28;13.48;;;12.13;;
21814;SDS011;11069;48.988;8.450;2022-12-07T10:51:24;15.10;;;13.60;;
21814;SDS011;11069;48.988;8.450;2022-12-07T10:54:17;15.18;;;13.18;;
21814;SDS011;11069;48.988;8.450;2022-12-07T10:57:00;17.17;;;13.88;;
21814;SDS011;11069;48.988;8.450;2022-12-07T11:02:24;14.68;;;13.18;;
21814;SDS011;11069;48.988;8.450;2022-12-07T11:05:02;14.20;;;12.80;;
21814;SDS011;11069;48.988;8.450;2022-12-07T11:16:33;14.52;;;13.02;;
21814;SDS011;11069;48.988;8.450;2022-12-07T11:19:43;15.00;;;13.35;;
21814;SDS011;11069;48.988;8.450;2022-12-07T11:31:10;15.15;;;13.55;;
21814;SDS011;11069;48.988;8.450;2022-12-07T11:33:45;14.70;;;13.20;;
21814;SDS011;11069;48.988;8.450;2022-12-07T11:36:27;14.25;;;12.60;;
21814;SDS011;11069;48.988;8.450;2022-12-07T11:39:28;15.93;;;14.15;;
21814;SDS011;11069;48.988;8.450;2022-12-07T11:47:35;14.80;;;13.10;;
21814;SDS011;11069;48.988;8.450;2022-12-07T11:52:49;14.13;;;12.68;;
21814;SDS011;11069;48.988;8.450;2022-12-07T11:55:21;18.70;;;13.75;;
21814;SDS011;11069;48.988;8.450;2022-12-07T11:57:51;17.33;;;14.10;;
21814;SDS011;11069;48.988;8.450;2022-12-07T12:00:26;19.38;;;16.75;;
21814;SDS011;11069;48.988;8.450;2022-12-07T12:02:58;17.33;;;15.18;;
21814;SDS011;11069;48.988;8.450;2022-12-07T12:05:29;20.30;;;17.52;;
21814;SDS011;11069;48.988;8.450;2022-12-07T12:16:14;23.45;;;19.25;;
21814;SDS011;11069;48.988;8.450;2022-12-07T12:21:39;21.70;;;18.83;;
21814;SDS011;11069;48.988;8.450;2022-12-07T12:24:49;24.65;;;19.83;;
21814;SDS011;11069;48.988;8.450;2022-12-07T12:27:24;23.20;;;20.42;;
21814;SDS011;11069;48.988;8.450;2022-12-07T12:29:57;22.20;;;19.85;;
21814;SDS011;11069;48.988;8.450;2022-12-07T12:32:37;21.83;;;19.40;;
21814;SDS011;11069;48.988;8.450;2022-12-07T12:37:48;23.52;;;20.15;;
21814;SDS011;11069;48.988;8.450;2022-12-07T12:42:49;21.63;;;19.30;;
21814;SDS011;11069;48.988;8.450;2022-12-07T12:45:29;22.08;;;19.70;;
21814;SDS011;11069;48.988;8.450;2022-12-07T12:48:02;24.52;;;19.58;;
21814;SDS011;11069;48.988;8.450;2022-12-07T12:55:30;25.75;;;21.08;;
21814;SDS011;11069;48.988;8.450;2022-12-07T13:00:43;25.17;;;21.02;;
21814;SDS011;11069;48.988;8.450;2022-12-07T13:06:17;27.17;;;22.15;;
21814;SDS011;11069;48.988;8.450;2022-12-07T13:08:49;24.42;;;21.73;;
21814;SDS011;11069;48.988;8.450;2022-12-07T13:11:38;24.40;;;21.83;;
21814;SDS011;11069;48.988;8.450;2022-12-07T13:24:56;25.83;;;22.40;;
21814;SDS011;11069;48.988;8.450;2022-12-07T13:27:22;26.83;;;22.52;;
21814;SDS011;11069;48.988;8.450;2022-12-07T13:29:50;28.17;;;23.83;;
21814;SDS011;11069;48.988;8.450;2022-12-07T13:32:23;27.80;;;23.50;;
21814;SDS011;11069;48.988;8.450;2022-12-07T13:34:50;27.25;;;23.20;;
21814;SDS011;11069;48.988;8.450;2022-12-07T13:39:58;25.90;;;22.38;;
21814;SDS011;11069;48.988;8.450;2022-12-07T13:42:33;26.02;;;22.13;;
21814;SDS011;11069;48.988;8.450;2022-12-07T13:45:00;26.55;;;23.75;;
21814;SDS011;11069;48.988;8.450;2022-12-07T13:47:47;26.50;;;23.73;;
21814;SDS011;11069;48.988;8.450;2022-12-07T13:50:23;26.73;;;22.90;;
21814;SDS011;11069;48.988;8.450;2022-12-07T13:52:55;24.83;;;22.13;;
21814;SDS011;11069;48.988;8.450;2022-12-07T13:55:22;26.60;;;22.17;;
21814;SDS011;11069;48.988;8.450;2022-12-07T13:57:49;32.08;;;26.00;;
21814;SDS011;11069;48.988;8.450;2022-12-07T14:00:20;32.92;;;26.92;;
21814;SDS011;11069;48.988;8.450;2022-12-07T14:05:44;25.42;;;22.73;;
21814;SDS011;11069;48.988;8.450;2022-12-07T14:10:57;22.27;;;19.52;;
21814;SDS011;11069;48.988;8.450;2022-12-07T14:15:53;23.40;;;19.85;;
21814;SDS011;11069;48.988;8.450;2022-12-07T14:18:39;22.83;;;19.67;;
21814;SDS011;11069;48.988;8.450;2022-12-07T14:21:06;21.55;;;19.00;;
21814;SDS011;11069;48.988;8.450;2022-12-07T14:23:40;22.23;;;19.23;;
21814;SDS011;11069;48.988;8.450;2022-12-07T14:26:13;21.88;;;19.02;;
21814;SDS011;11069;48.988;8.450;2022-12-07T14:28:42;20.33;;;18.25;;
21814;SDS011;11069;48.988;8.450;2022-12-07T14:31:15;22.25;;;18.92;;
21814;SDS011;11069;48.988;8.450;2022-12-07T14:33:42;20.00;;;17.95;;
21814;SDS011;11069;48.988;8.450;2022-12-07T14:36:11;20.27;;;17.60;;
21814;SDS011;11069;48.988;8.450;2022-12-07T14:38:38;23.35;;;17.65;;
21814;SDS011;11069;48.988;8.450;2022-12-07T14:41:04;18.98;;;16.95;;
21814;SDS011;11069;48.988;8.450;2022-12-07T14:43:56;20.00;;;16.90;;
21814;SDS011;11069;48.988;8.450;2022-12-07T14:46:21;20.00;;;17.90;;
21814;SDS011;11069;48.988;8.450;2022-12-07T14:48:47;20.73;;;18.50;;
21814;SDS011;11069;48.988;8.450;2022-12-07T14:51:13;20.45;;;17.13;;
21814;SDS011;11069;48.988;8.450;2022-12-07T14:53:48;17.40;;;15.70;;
21814;SDS011;11069;48.988;8.450;2022-12-07T14:56:16;19.60;;;15.93;;
21814;SDS011;11069;48.988;8.450;2022-12-07T14:58:42;18.52;;;16.63;;
21814;SDS011;11069;48.988;8.450;2022-12-07T15:01:08;17.60;;;15.52;;
21814;SDS011;11069;48.988;8.450;2022-12-07T15:03:33;17.05;;;15.25;;
21814;SDS011;11069;48.988;8.450;2022-12-07T15:06:03;17.70;;;15.88;;
21814;SDS011;11069;48.988;8.450;2022-12-07T15:08:30;17.20;;;15.40;;
21814;SDS011;11069;48.988;8.450;2022-12-07T15:10:56;21.15;;;16.20;;
21814;SDS011;11069;48.988;8.450;2022-12-07T15:13:22;16.27;;;14.63;;
21814;SDS011;11069;48.988;8.450;2022-12-07T15:16:08;18.20;;;16.40;;
21814;SDS011;11069;48.988;8.450;2022-12-07T15:18:37;18.73;;;16.52;;
21814;SDS011;11069;48.988;8.450;2022-12-07T15:21:03;17.98;;;16.13;;
21814;SDS011;11069;48.988;8.450;2022-12-07T15:23:29;19.25;;;17.00;;
21814;SDS011;11069;48.988;8.450;2022-12-07T15:25:54;20.20;;;16.67;;
21814;SDS011;11069;48.988;8.450;2022-12-07T15:28:20;18.45;;;16.52;;
21814;SDS011;11069;48.988;8.450;2022-12-07T15:30:45;21.15;;;15.75;;
21814;SDS011;11069;48.988;8.450;2022-12-07T15:33:11;18.42;;;16.48;;
21814;SDS011;11069;48.988;8.450;2022-12-07T15:35:39;19.25;;;17.08;;
21814;SDS011;11069;48.988;8.450;2022-12-07T15:38:05;20.23;;;16.30;;
21814;SDS011;11069;48.988;8.450;2022-12-07T15:40:31;18.73;;;16.83;;
21814;SDS011;11069;48.988;8.450;2022-12-07T15:42:56;19.65;;;17.45;;
21814;SDS011;11069;48.988;8.450;2022-12-07T15:45:22;19.50;;;17.50;;
21814;SDS011;11069;48.988;8.450;2022-12-07T15:47:47;19.17;;;17.02;;
21814;SDS011;11069;48.988;8.450;2022-12-07T15:50:14;22.15;;;18.52;;
21814;SDS011;11069;48.988;8.450;2022-12-07T15:52:41;22.67;;;18.85;;
21814;SDS011;11069;48.988;8.450;2022-12-07T15:55:07;20.05;;;17.75;;
21814;SDS011;11069;48.988;8.450;2022-12-07T15:57:35;22.85;;;19.08;;
21814;SDS011;11069;48.988;8.450;2022-12-07T16:00:02;21.33;;;16.77;;
21814;SDS011;11069;48.988;8.450;2022-12-07T16:02:29;19.15;;;17.20;;
21814;SDS011;11069;48.988;8.450;2022-12-07T16:04:55;19.73;;;17.65;;
21814;SDS011;11069;48.988;8.450;2022-12-07T16:07:20;21.88;;;18.02;;
21814;SDS011;11069;48.988;8.450;2022-12-07T16:09:46;21.05;;;17.60;;
21814;SDS011;11069;48.988;8.450;2022-12-07T16:12:13;22.42;;;18.05;;
21814;SDS011;11069;48.988;8.450;2022-12-07T16:14:39;22.35;;;19.63;;
21814;SDS011;11069;48.988;8.450;2022-12-07T16:17:05;22.67;;;19.85;;
21814;SDS011;11069;48.988;8.450;2022-12-07T16:19:32;21.85;;;18.52;;
21814;SDS011;11069;48.988;8.450;2022-12-07T16:21:58;22.52;;;20.10;;
21814;SDS011;11069;48.988;8.450;2022-12-07T16:24:24;21.70;;;19.40;;
21814;SDS011;11069;48.988;8.450;2022-12-07T16:26:50;20.55;;;18.35;;
21814;SDS011;11069;48.988;8.450;2022-12-07T16:29:17;20.60;;;18.48;;
21814;SDS011;11069;48.988;8.450;2022-12-07T16:31:44;20.52;;;18.33;;
21814;SDS011;11069;48.988;8.450;2022-12-07T16:34:10;22.30;;;19.13;;
21814;SDS011;11069;48.988;8.450;2022-12-07T16:36:35;22.70;;;19.02;;
21814;SDS011;11069;48.988;8.450;2022-12-07T16:39:01;21.42;;;19.13;;